Barnstable Municipal Boardman Polando Field Hyannis US
ICAO: KHYA
IATA: HYA
Category: Medium
Scheduled Services: Yes

Elevation: 54 ft
TransAlt. 18000 ft.

Airport Communications:
CAPE APP/DEP:118.2
ATIS:123.8
CLNC DEL:125.15
CTAF:119.5
GND:121.9
BRIDGEPORT RDO:126.425
HYANNIS TWR:119.5
UNICOM:122.95

KHYA Zoom In..

If you have problems with the map follow the link
https://www.worldairports.se/pages/airport.php?
ICAO=KHYA

Runways:

(A) RW 06 length 5425 ft width 150 ft
---- / hdg 66

(B) RW 15 length 5253 ft width 150 ft
ILS 108.95 / hdg 156

(C) RW 24 length 5425 ft width 150 ft
ILS 109.15 / hdg 246

(D) RW 33 length 5253 ft width 150 ft
---- / hdg 336

Location; KHYA
Day. 19 / Time. 00.56 Zulu
* Altimeter: 30.27
* Temperature: 04° c. 39.2°f.
* Wind from: 290° Speed 06 kn.
Dewpoint: -06° c.
Visibility: 10 Statute Miles.
Clouds: Clear (automated report).

KHYA 190056Z 29006KT 10SM CLR 04/M06 A3027 RMK AO2 SLP251 T00441061


Wind From 290°
Speed 06 kn.

 
 
jpsmedia.com for Web Design worldairports.se 2018   terms of use